createdAt,value
2022-09-01T00:01:54.510Z,17.14
2022-09-01T00:04:27.146Z,17.21
2022-09-01T00:06:56.506Z,17.15
2022-09-01T00:09:24.574Z,17.04
2022-09-01T00:11:54.778Z,17.15
2022-09-01T00:14:29.657Z,17.02
2022-09-01T00:16:58.872Z,17.10
2022-09-01T00:19:29.665Z,17.10
2022-09-01T00:21:57.877Z,17.13
2022-09-01T00:24:26.556Z,17.09
2022-09-01T00:26:55.772Z,17.05
2022-09-01T00:29:24.857Z,16.98
2022-09-01T00:31:53.123Z,16.96
2022-09-01T00:34:21.299Z,17.03
2022-09-01T00:36:50.652Z,17.01
2022-09-01T00:39:18.327Z,17.03
2022-09-01T00:41:47.240Z,16.92
2022-09-01T00:44:18.886Z,17.00
2022-09-01T00:46:51.115Z,16.99
2022-09-01T00:49:29.789Z,16.90
2022-09-01T00:52:05.243Z,16.76
2022-09-01T00:54:37.050Z,16.74
2022-09-01T00:57:05.706Z,16.78
2022-09-01T00:59:34.059Z,16.85
2022-09-01T01:02:01.672Z,16.84
2022-09-01T01:04:30.188Z,16.81
2022-09-01T01:07:03.118Z,16.77
2022-09-01T01:09:35.263Z,16.82
2022-09-01T01:12:05.872Z,16.72
2022-09-01T01:14:39.985Z,16.73
2022-09-01T01:17:07.919Z,16.63
2022-09-01T01:19:59.905Z,16.59
2022-09-01T01:22:53.673Z,16.54
2022-09-01T01:25:23.921Z,16.46
2022-09-01T01:27:52.067Z,16.55
2022-09-01T01:30:23.631Z,16.60
2022-09-01T01:32:51.897Z,16.58
2022-09-01T01:35:23.349Z,16.63
2022-09-01T01:37:51.827Z,16.69
2022-09-01T01:40:23.041Z,16.63
2022-09-01T01:42:53.090Z,16.54
2022-09-01T01:45:23.708Z,16.60
2022-09-01T01:47:54.090Z,16.64
2022-09-01T01:50:23.600Z,16.70
2022-09-01T01:52:58.353Z,16.58
2022-09-01T01:55:29.082Z,16.60
2022-09-01T01:57:57.480Z,16.53
2022-09-01T02:00:30.593Z,16.53
2022-09-01T02:02:59.916Z,16.48
2022-09-01T02:05:30.289Z,16.53
2022-09-01T02:08:04.838Z,16.49
2022-09-01T02:10:36.567Z,16.49
2022-09-01T02:13:07.700Z,16.59
2022-09-01T02:15:43.185Z,16.63
2022-09-01T02:18:14.388Z,16.62
2022-09-01T02:20:42.283Z,16.63
2022-09-01T02:23:10.775Z,16.64
2022-09-01T02:26:05.137Z,16.58
2022-09-01T02:28:36.756Z,16.52
2022-09-01T02:31:05.936Z,16.52
2022-09-01T02:33:33.715Z,16.46
2022-09-01T02:36:04.041Z,16.34
2022-09-01T02:38:33.860Z,16.41
2022-09-01T02:41:04.237Z,16.40
2022-09-01T02:43:33.756Z,16.41
2022-09-01T02:46:02.999Z,16.30
2022-09-01T02:48:35.768Z,16.37
2022-09-01T02:51:05.429Z,16.28
2022-09-01T02:53:35.451Z,16.16
2022-09-01T02:56:09.325Z,16.05
2022-09-01T02:58:40.807Z,16.13
2022-09-01T03:01:13.514Z,16.09
2022-09-01T03:03:41.258Z,16.11
2022-09-01T03:06:10.107Z,16.16
2022-09-01T03:08:40.029Z,16.09
2022-09-01T03:11:12.985Z,15.95
2022-09-01T03:13:42.217Z,16.01
2022-09-01T03:16:11.701Z,16.04
2022-09-01T03:18:40.526Z,16.06
2022-09-01T03:21:08.963Z,15.95
2022-09-01T03:23:37.948Z,15.97
2022-09-01T03:26:06.376Z,15.87
2022-09-01T03:28:35.301Z,15.77
2022-09-01T03:31:02.935Z,15.78
2022-09-01T03:33:30.988Z,15.83
2022-09-01T03:35:58.649Z,15.79
2022-09-01T03:38:27.438Z,15.79
2022-09-01T03:40:58.936Z,15.84
2022-09-01T03:43:27.818Z,15.78
2022-09-01T03:46:05.302Z,15.77
2022-09-01T03:48:33.331Z,15.75
2022-09-01T03:51:02.853Z,15.78
2022-09-01T03:53:32.414Z,15.68
2022-09-01T03:56:00.282Z,15.58
2022-09-01T03:58:28.230Z,15.69
2022-09-01T04:00:58.315Z,15.62
2022-09-01T04:03:31.834Z,15.50
2022-09-01T04:06:00.466Z,15.54
2022-09-01T04:08:32.634Z,15.57
2022-09-01T04:11:03.919Z,15.50
2022-09-01T04:13:36.420Z,15.46
2022-09-01T04:16:10.451Z,15.58
2022-09-01T04:18:40.052Z,15.59
2022-09-01T04:21:10.520Z,15.57
2022-09-01T04:23:38.252Z,15.55
2022-09-01T04:26:10.097Z,15.52
2022-09-01T04:28:39.616Z,15.47
2022-09-01T04:31:10.318Z,15.40
2022-09-01T04:33:39.996Z,15.47
2022-09-01T04:36:19.296Z,15.41
2022-09-01T04:38:47.321Z,15.48
2022-09-01T04:41:17.816Z,15.43
2022-09-01T04:43:47.414Z,15.46
2022-09-01T04:46:15.135Z,15.42
2022-09-01T04:48:45.992Z,15.37
2022-09-01T04:51:15.396Z,15.33
2022-09-01T04:53:48.722Z,15.28
2022-09-01T04:56:19.446Z,15.24
2022-09-01T04:58:48.116Z,15.21
2022-09-01T05:01:18.414Z,15.31
2022-09-01T05:04:01.512Z,15.25
2022-09-01T05:06:33.889Z,15.33
2022-09-01T05:09:01.514Z,15.42
2022-09-01T05:11:29.514Z,15.50
2022-09-01T05:13:58.904Z,15.75
2022-09-01T05:16:36.013Z,15.95
2022-09-01T05:19:05.524Z,16.07
2022-09-01T05:21:33.250Z,16.15
2022-09-01T05:24:01.913Z,16.21
2022-09-01T05:26:34.559Z,16.39
2022-09-01T05:29:10.585Z,16.38
2022-09-01T05:31:38.883Z,16.39
2022-09-01T05:34:09.776Z,16.42
2022-09-01T05:36:42.251Z,16.39
2022-09-01T05:39:12.087Z,16.49
2022-09-01T05:41:41.046Z,16.50
2022-09-01T05:44:11.155Z,16.63
2022-09-01T05:46:40.204Z,16.81
2022-09-01T05:49:16.215Z,16.99
2022-09-01T05:51:50.560Z,16.93
2022-09-01T05:54:21.466Z,16.85
2022-09-01T05:56:49.874Z,16.87
2022-09-01T05:59:25.299Z,17.09
2022-09-01T06:01:54.420Z,18.00
2022-09-01T06:04:25.247Z,18.57
2022-09-01T06:07:05.652Z,18.89
2022-09-01T06:09:38.132Z,19.10
2022-09-01T06:12:06.960Z,18.49
2022-09-01T06:14:34.985Z,18.63
2022-09-01T06:17:03.154Z,18.33
2022-09-01T06:19:36.960Z,17.89
2022-09-01T06:22:05.757Z,17.76
2022-09-01T06:24:33.705Z,17.74
2022-09-01T06:27:01.288Z,17.49
2022-09-01T06:29:31.182Z,17.77
2022-09-01T06:32:02.238Z,17.77
2022-09-01T06:34:30.032Z,18.06
2022-09-01T06:36:59.788Z,18.12
2022-09-01T06:39:27.411Z,18.39
2022-09-01T06:41:58.065Z,18.32
2022-09-01T06:44:25.836Z,18.22
2022-09-01T06:46:53.971Z,18.01
2022-09-01T06:49:23.442Z,18.12
2022-09-01T06:51:52.702Z,18.11
2022-09-01T06:54:21.638Z,18.06
2022-09-01T06:56:51.713Z,18.42
2022-09-01T06:59:20.658Z,18.71
2022-09-01T07:01:49.456Z,18.87
2022-09-01T07:04:22.092Z,18.94
2022-09-01T07:09:50.069Z,18.92
2022-09-01T07:12:29.980Z,19.81
2022-09-01T07:17:50.051Z,20.96
2022-09-01T07:20:26.064Z,20.92
2022-09-01T07:23:11.021Z,20.70
2022-09-01T07:26:02.245Z,20.86
2022-09-01T07:28:40.493Z,21.02
2022-09-01T07:39:50.941Z,20.77
2022-09-01T07:42:31.117Z,19.21
2022-09-01T07:45:26.645Z,20.55
2022-09-01T07:47:55.100Z,21.18
2022-09-01T07:51:34.343Z,21.63
2022-09-01T07:53:12.793Z,21.79
2022-09-01T07:55:42.186Z,22.05
2022-09-01T07:58:13.542Z,22.47
2022-09-01T08:00:43.281Z,22.81
2022-09-01T08:03:11.060Z,22.45
2022-09-01T08:05:38.816Z,22.47
2022-09-01T08:08:28.399Z,22.66
2022-09-01T08:11:04.333Z,23.34
2022-09-01T08:13:38.818Z,23.40
2022-09-01T08:16:17.027Z,23.29
2022-09-01T08:18:48.826Z,23.24
2022-09-01T08:21:18.102Z,22.37
2022-09-01T08:23:45.863Z,22.40
2022-09-01T08:26:16.435Z,22.68
2022-09-01T08:28:54.380Z,22.20
2022-09-01T08:31:24.264Z,22.41
2022-09-01T08:33:52.854Z,22.33
2022-09-01T08:36:23.941Z,22.31
2022-09-01T08:38:53.877Z,22.30
2022-09-01T08:41:35.707Z,22.35
2022-09-01T08:44:14.782Z,22.65
2022-09-01T08:46:43.806Z,22.72
2022-09-01T08:49:25.128Z,22.30
2022-09-01T08:51:59.058Z,23.04
2022-09-01T08:54:36.261Z,24.01
2022-09-01T08:57:08.008Z,24.10
2022-09-01T08:59:37.034Z,24.53
2022-09-01T09:02:17.671Z,22.89
2022-09-01T09:04:54.551Z,22.87
2022-09-01T09:07:35.108Z,23.30
2022-09-01T09:10:12.086Z,24.29
2022-09-01T09:12:57.681Z,23.03
2022-09-01T09:15:32.487Z,22.83
2022-09-01T09:18:20.071Z,22.93
2022-09-01T09:21:08.745Z,23.79
2022-09-01T09:23:43.095Z,23.63
2022-09-01T09:26:10.935Z,22.74
2022-09-01T09:28:40.117Z,23.00
2022-09-01T09:31:29.745Z,22.09
2022-09-01T09:33:59.107Z,22.27
2022-09-01T09:36:33.173Z,22.38
2022-09-01T09:39:10.346Z,21.50
2022-09-01T09:41:39.868Z,22.16
2022-09-01T09:44:19.400Z,22.20
2022-09-01T09:46:49.424Z,21.37
2022-09-01T09:49:34.256Z,22.17
2022-09-01T09:52:16.869Z,22.17
2022-09-01T09:55:01.566Z,22.38
2022-09-01T09:57:31.286Z,22.03
2022-09-01T10:00:02.770Z,22.16
2022-09-01T10:02:34.792Z,22.65
2022-09-01T10:05:23.736Z,22.72
2022-09-01T10:07:52.180Z,22.03
2022-09-01T10:10:32.281Z,22.37
2022-09-01T10:13:02.327Z,22.22
2022-09-01T10:15:33.356Z,22.38
2022-09-01T10:18:32.765Z,22.80
2022-09-01T10:21:00.547Z,23.16
2022-09-01T10:23:31.680Z,23.26
2022-09-01T10:26:05.931Z,22.97
2022-09-01T10:28:49.962Z,22.65
2022-09-01T10:31:19.786Z,23.00
2022-09-01T10:33:49.797Z,23.50
2022-09-01T10:36:19.903Z,23.60
2022-09-01T10:38:53.516Z,23.40
2022-09-01T10:42:00.136Z,23.16
2022-09-01T10:44:33.781Z,23.88
2022-09-01T10:47:06.184Z,24.24
2022-09-01T10:50:07.616Z,24.50
2022-09-01T10:52:57.163Z,23.73
2022-09-01T10:55:29.662Z,23.66
2022-09-01T10:59:31.076Z,24.32
2022-09-01T11:01:40.542Z,23.79
2022-09-01T11:03:56.583Z,24.22
2022-09-01T11:07:13.871Z,24.34
2022-09-01T11:09:43.762Z,23.88
2022-09-01T11:12:46.840Z,24.08
2022-09-01T11:15:39.168Z,23.89
2022-09-01T11:18:19.291Z,24.00
2022-09-01T11:20:48.383Z,24.04
2022-09-01T11:23:27.747Z,24.23
2022-09-01T11:28:44.644Z,24.39
2022-09-01T11:31:27.900Z,24.47
2022-09-01T11:34:13.038Z,24.37
2022-09-01T11:36:59.011Z,23.64
2022-09-01T11:39:35.843Z,24.23
2022-09-01T11:42:10.733Z,24.71
2022-09-01T11:44:45.992Z,24.77
2022-09-01T11:47:17.835Z,24.99
2022-09-01T11:49:52.866Z,24.87
2022-09-01T11:52:22.948Z,25.28
2022-09-01T11:54:52.374Z,24.25
2022-09-01T11:57:24.210Z,24.20
2022-09-01T11:59:53.229Z,24.49
2022-09-01T12:02:25.307Z,24.62
2022-09-01T12:04:55.433Z,25.13
2022-09-01T12:07:39.773Z,25.31
2022-09-01T12:10:18.390Z,25.43
2022-09-01T12:12:46.107Z,25.75
2022-09-01T12:15:21.203Z,25.82
2022-09-01T12:17:49.377Z,25.27
2022-09-01T12:20:29.638Z,25.22
2022-09-01T12:22:58.935Z,26.16
2022-09-01T12:25:30.416Z,26.57
2022-09-01T12:28:00.192Z,25.67
2022-09-01T12:30:28.699Z,25.75
2022-09-01T12:35:49.235Z,26.26
2022-09-01T12:38:30.148Z,26.23
2022-09-01T12:41:03.782Z,24.75
2022-09-01T12:43:35.477Z,24.39
2022-09-01T12:46:04.875Z,24.34
2022-09-01T12:48:35.738Z,24.86
2022-09-01T12:51:09.297Z,25.00
2022-09-01T12:53:37.274Z,25.06
2022-09-01T12:56:19.815Z,24.73
2022-09-01T12:58:52.210Z,24.08
2022-09-01T13:01:33.074Z,24.16
2022-09-01T13:04:29.962Z,24.68
2022-09-01T13:07:02.444Z,24.42
2022-09-01T13:09:30.701Z,24.79
2022-09-01T13:12:13.279Z,24.17
2022-09-01T13:14:41.137Z,24.26
2022-09-01T13:17:14.011Z,24.78
2022-09-01T13:19:42.635Z,25.44
2022-09-01T13:22:10.517Z,25.54
2022-09-01T13:24:39.659Z,26.17
2022-09-01T13:27:23.682Z,26.64
2022-09-01T13:29:53.359Z,26.92
2022-09-01T13:32:24.691Z,26.69
2022-09-01T13:34:55.010Z,27.21
2022-09-01T13:37:24.057Z,27.51
2022-09-01T13:39:52.328Z,27.61
2022-09-01T13:42:20.483Z,27.17
2022-09-01T13:44:52.465Z,27.31
2022-09-01T13:47:29.281Z,27.71
2022-09-01T13:50:08.439Z,26.90
2022-09-01T13:52:38.219Z,26.47
2022-09-01T13:55:07.574Z,26.27
2022-09-01T13:57:36.338Z,25.81
2022-09-01T14:00:06.546Z,25.92
2022-09-01T14:02:36.761Z,25.86
2022-09-01T14:05:05.119Z,25.62
2022-09-01T14:07:33.646Z,25.20
2022-09-01T14:10:01.574Z,24.78
2022-09-01T14:12:30.152Z,24.70
2022-09-01T14:15:16.999Z,24.98
2022-09-01T14:17:47.718Z,24.92
2022-09-01T14:20:18.468Z,24.86
2022-09-01T14:22:46.785Z,24.72
2022-09-01T14:25:15.622Z,24.61
2022-09-01T14:27:44.574Z,24.67
2022-09-01T14:30:16.945Z,24.92
2022-09-01T14:32:50.923Z,25.08
2022-09-01T14:35:19.973Z,24.95
2022-09-01T14:37:48.177Z,25.03
2022-09-01T14:40:18.503Z,25.04
2022-09-01T14:42:49.440Z,25.30
2022-09-01T14:45:19.469Z,25.56
2022-09-01T14:47:50.468Z,25.22
2022-09-01T14:50:22.755Z,25.45
2022-09-01T14:52:53.875Z,25.44
2022-09-01T14:55:22.558Z,25.21
2022-09-01T14:57:50.262Z,25.13
2022-09-01T15:00:18.386Z,25.34
2022-09-01T15:02:48.981Z,25.26
2022-09-01T15:05:16.873Z,25.08
2022-09-01T15:07:45.367Z,24.92
2022-09-01T15:10:25.406Z,25.38
2022-09-01T15:12:55.043Z,25.28
2022-09-01T15:15:22.874Z,24.88
2022-09-01T15:17:51.889Z,24.80
2022-09-01T15:20:37.154Z,24.96
2022-09-01T15:23:05.415Z,25.18
2022-09-01T15:25:33.214Z,25.35
2022-09-01T15:28:01.619Z,25.11
2022-09-01T15:30:29.486Z,25.05
2022-09-01T15:32:59.120Z,24.86
2022-09-01T15:35:28.831Z,24.92
2022-09-01T15:37:56.536Z,24.90
2022-09-01T15:40:26.090Z,25.10
2022-09-01T15:42:54.896Z,24.90
2022-09-01T15:45:24.710Z,24.98
2022-09-01T15:47:52.475Z,24.83
2022-09-01T15:50:27.612Z,24.85
2022-09-01T15:52:59.875Z,24.42
2022-09-01T15:55:30.807Z,24.28
2022-09-01T15:58:00.070Z,24.37
2022-09-01T16:00:28.479Z,24.32
2022-09-01T16:03:01.490Z,24.43
2022-09-01T16:05:31.548Z,24.32
2022-09-01T16:08:01.185Z,24.27
2022-09-01T16:10:32.400Z,24.40
2022-09-01T16:13:02.876Z,24.32
2022-09-01T16:15:30.481Z,24.40
2022-09-01T16:18:14.095Z,24.43
2022-09-01T16:20:55.853Z,24.43
2022-09-01T16:23:25.817Z,24.42
2022-09-01T16:25:54.712Z,24.52
2022-09-01T16:28:27.384Z,24.59
2022-09-01T16:31:00.392Z,24.48
2022-09-01T16:33:28.134Z,24.40
2022-09-01T16:36:17.606Z,24.51
2022-09-01T16:38:49.667Z,24.51
2022-09-01T16:41:36.237Z,24.31
2022-09-01T16:44:14.442Z,24.27
2022-09-01T16:46:47.823Z,24.36
2022-09-01T16:49:22.842Z,24.26
2022-09-01T16:52:01.959Z,24.18
2022-09-01T16:54:42.788Z,24.18
2022-09-01T16:57:20.828Z,24.17
2022-09-01T16:59:55.719Z,24.15
2022-09-01T17:02:38.346Z,24.06
2022-09-01T17:05:16.965Z,24.03
2022-09-01T17:07:51.993Z,24.09
2022-09-01T17:10:32.748Z,24.02
2022-09-01T17:13:17.221Z,24.05
2022-09-01T17:15:50.311Z,23.98
2022-09-01T17:18:30.550Z,23.95
2022-09-01T17:21:03.856Z,23.86
2022-09-01T17:23:40.530Z,23.85
2022-09-01T17:26:16.482Z,23.70
2022-09-01T17:28:51.965Z,23.61
2022-09-01T17:31:34.556Z,23.53
2022-09-01T17:34:12.026Z,23.50
2022-09-01T17:36:48.489Z,23.50
2022-09-01T17:39:30.275Z,23.36
2022-09-01T17:42:00.969Z,23.30
2022-09-01T17:44:36.831Z,23.20
2022-09-01T17:47:11.995Z,23.12
2022-09-01T17:49:50.456Z,23.02
2022-09-01T17:52:23.724Z,22.91
2022-09-01T17:54:59.533Z,22.85
2022-09-01T17:57:38.772Z,22.79
2022-09-01T18:00:10.671Z,22.79
2022-09-01T18:02:58.471Z,22.73
2022-09-01T18:05:27.655Z,22.61
2022-09-01T18:08:18.231Z,22.52
2022-09-01T18:10:51.907Z,22.47
2022-09-01T18:13:36.152Z,22.44
2022-09-01T18:16:13.657Z,22.39
2022-09-01T18:18:44.337Z,22.42
2022-09-01T18:21:15.001Z,22.38
2022-09-01T18:23:44.915Z,22.38
2022-09-01T18:26:27.190Z,22.26
2022-09-01T18:28:55.397Z,22.16
2022-09-01T18:31:42.219Z,21.97
2022-09-01T18:34:18.627Z,21.90
2022-09-01T18:36:55.044Z,21.76
2022-09-01T18:39:28.734Z,21.76
2022-09-01T18:42:11.881Z,21.60
2022-09-01T18:44:48.830Z,21.59
2022-09-01T18:47:18.244Z,21.48
2022-09-01T18:49:58.296Z,21.34
2022-09-01T18:52:47.065Z,21.29
2022-09-01T18:55:23.419Z,21.23
2022-09-01T18:57:55.708Z,21.12
2022-09-01T19:00:30.549Z,21.15
2022-09-01T19:03:07.700Z,21.03
2022-09-01T19:05:59.216Z,20.93
2022-09-01T19:08:40.912Z,20.94
2022-09-01T19:11:16.973Z,20.86
2022-09-01T19:13:59.352Z,20.69
2022-09-01T19:16:42.791Z,20.78
2022-09-01T19:19:25.200Z,20.78
2022-09-01T19:21:55.749Z,20.65
2022-09-01T19:24:28.945Z,20.59
2022-09-01T19:27:04.566Z,20.55
2022-09-01T19:29:38.620Z,20.56
2022-09-01T19:32:10.113Z,20.58
2022-09-01T19:34:42.474Z,20.54
2022-09-01T19:37:11.245Z,20.52
2022-09-01T19:39:42.785Z,20.54
2022-09-01T19:42:17.162Z,20.40
2022-09-01T19:44:55.573Z,20.38
2022-09-01T19:47:30.825Z,20.39
2022-09-01T19:50:04.221Z,20.27
2022-09-01T19:52:39.317Z,20.30
2022-09-01T19:55:13.292Z,20.29
2022-09-01T19:57:45.918Z,20.26
2022-09-01T20:00:18.485Z,20.22
2022-09-01T20:02:51.240Z,20.29
2022-09-01T20:05:27.904Z,20.36
2022-09-01T20:07:59.523Z,20.22
2022-09-01T20:10:40.775Z,20.25
2022-09-01T20:13:25.039Z,20.12
2022-09-01T20:16:00.556Z,20.14
2022-09-01T20:18:31.875Z,20.02
2022-09-01T20:21:03.528Z,19.89
2022-09-01T20:23:36.588Z,19.78
2022-09-01T20:26:07.304Z,19.96
2022-09-01T20:28:46.368Z,19.95
2022-09-01T20:31:22.921Z,19.99
2022-09-01T20:33:56.065Z,19.96
2022-09-01T20:36:30.231Z,19.86
2022-09-01T20:39:19.266Z,19.70
2022-09-01T20:41:58.143Z,19.58
2022-09-01T20:44:36.562Z,19.62
2022-09-01T20:47:06.737Z,19.51
2022-09-01T20:49:37.172Z,19.43
2022-09-01T20:52:13.571Z,19.37
2022-09-01T20:54:50.107Z,19.29
2022-09-01T20:57:38.345Z,19.30
2022-09-01T21:00:10.516Z,19.42
2022-09-01T21:02:53.683Z,19.49
2022-09-01T21:05:36.123Z,19.62
2022-09-01T21:08:20.900Z,19.62
2022-09-01T21:10:55.030Z,19.56
2022-09-01T21:13:39.357Z,19.51
2022-09-01T21:16:13.419Z,19.49
2022-09-01T21:18:55.988Z,19.39
2022-09-01T21:21:35.309Z,19.56
2022-09-01T21:24:03.219Z,19.45
2022-09-01T21:26:31.182Z,19.38
2022-09-01T21:29:11.137Z,19.28
2022-09-01T21:31:38.800Z,19.33
2022-09-01T21:34:07.836Z,19.27
2022-09-01T21:36:35.519Z,19.25
2022-09-01T21:39:03.179Z,19.35
2022-09-01T21:41:30.825Z,19.21
2022-09-01T21:43:58.566Z,19.16
2022-09-01T21:46:30.597Z,19.12
2022-09-01T21:48:58.346Z,19.10
2022-09-01T21:51:27.870Z,18.99
2022-09-01T21:54:03.337Z,19.04
2022-09-01T21:56:31.659Z,18.98
2022-09-01T21:58:59.468Z,18.96
2022-09-01T22:01:31.101Z,18.94
2022-09-01T22:03:59.407Z,18.86
2022-09-01T22:06:28.915Z,18.89
2022-09-01T22:08:56.487Z,18.86
2022-09-01T22:11:24.249Z,18.76
2022-09-01T22:13:52.370Z,18.75
2022-09-01T22:16:21.525Z,18.65
2022-09-01T22:18:49.325Z,18.62
2022-09-01T22:21:18.137Z,18.59
2022-09-01T22:23:47.110Z,18.54
2022-09-01T22:26:21.406Z,18.47
2022-09-01T22:28:49.491Z,18.54
2022-09-01T22:31:19.666Z,18.46
2022-09-01T22:33:47.804Z,18.42
2022-09-01T22:36:20.576Z,18.46
2022-09-01T22:38:49.535Z,18.42
2022-09-01T22:41:20.015Z,18.34
2022-09-01T22:43:48.643Z,18.30
2022-09-01T22:46:19.431Z,18.41
2022-09-01T22:48:50.173Z,18.34
2022-09-01T22:51:18.351Z,18.24
2022-09-01T22:53:47.406Z,18.22
2022-09-01T22:56:20.278Z,18.15
2022-09-01T22:58:49.155Z,18.15
2022-09-01T23:01:20.261Z,18.16
2022-09-01T23:03:49.114Z,18.08
2022-09-01T23:06:27.511Z,18.03
2022-09-01T23:08:56.514Z,18.04
2022-09-01T23:11:26.122Z,18.01
2022-09-01T23:13:53.966Z,17.93
2022-09-01T23:16:23.324Z,17.88
2022-09-01T23:18:52.165Z,17.88
2022-09-01T23:21:23.174Z,17.83
2022-09-01T23:23:58.299Z,17.76
2022-09-01T23:26:29.038Z,17.76
2022-09-01T23:28:58.416Z,17.78
2022-09-01T23:31:29.037Z,17.64
2022-09-01T23:33:57.259Z,17.64
2022-09-01T23:36:27.777Z,17.69
2022-09-01T23:38:56.380Z,17.68
2022-09-01T23:41:29.305Z,17.70
2022-09-01T23:43:58.301Z,17.74
2022-09-01T23:46:29.721Z,17.88
2022-09-01T23:48:57.765Z,17.94
2022-09-01T23:51:26.098Z,17.91
2022-09-01T23:53:54.726Z,18.04
2022-09-01T23:56:24.763Z,18.03
2022-09-01T23:58:54.193Z,18.05
